• Join FlightAware (Why Join?)
  • Login
  • US Flag 
05:45AM EDT


 

Airport Tracker/Info


-or-


 

Live Flight TrackerFlight Track Log ✈ AAL1491 ✈ 19-May-2013 ✈ KDFW - KSFO

Flight Track Log - Related Links

Times and Time Zones

All times are in EDT time to prevent confusion due to time zone crossing. See the AAL1491 flight status page for this flight to view local times or setup timezone preferences in your user account.

Time Position Orientation Groundspeed Altitude Reporting Facility
EDT Latitude Longitude Course Direction KTS MPH feet Rate Location/Type
03:41PM 32.8490 -97.0540 195° South 179 206 2,800  Level FlightAware
03:42PM 32.8260 -97.0620 196° South 210 242 3,200 1,500 Climbing FlightAware
03:42PM 32.7970 -97.0730 198° South 230 265 4,200 2,220 Climbing FlightAware
03:42PM 32.7820 -97.0830 209° Southwest 237 273 4,900 2,880 Climbing FlightAware
03:43PM 32.7760 -97.0910 228° Southwest 238 274 5,400 3,120 Climbing FlightAware
03:43PM 32.7700 -97.1090 248° West 237 273 6,200 2,640 Climbing FlightAware
03:43PM 32.7660 -97.1470 263° West 245 282 7,400 2,040 Climbing FlightAware
03:44PM 32.7690 -97.1850 275° West 265 305 8,100 1,920 Climbing FlightAware
03:44PM 32.7720 -97.2280 275° West 278 320 9,200 2,100 Climbing FlightAware
03:45PM 32.7780 -97.2490 289° West 290 334 9,700 2,100 Climbing FlightAware
03:45PM 32.7990 -97.2840 306° West 305 351 10,600 1,440 Climbing FlightAware
03:46PM 32.8460 -97.3540 309° West 351 404 11,500 1,260 Climbing FlightAware
03:46PM 32.8880 -97.4190 308° West 376 433 12,500 1,980 Climbing FlightAware
03:47PM 32.9300 -97.4840 308° West 380 437 14,200 3,000 Climbing FlightAware
03:48PM 32.9730 -97.5500 308° West 370 426 16,500 3,000 Climbing FlightAware
03:48PM 33.0130 -97.6120 308° West 373 429 18,200 2,220 Climbing FlightAware
03:49PM 33.0680 -97.6980 307° West 390 449 19,900 2,100 Climbing FlightAware
03:50PM 33.1030 -97.7720 299° West 385 443 21,400 2,220 Climbing FlightAware
03:51PM 33.1280 -97.8500 291° West 389 448 22,900 1,980 Climbing FlightAware
03:51PM 33.1540 -97.9330 291° West 396 456 24,100 1,080 Climbing FlightAware
03:52PM 33.1970 -98.0660 291° West 405 466 24,900 1,140 Climbing FlightAware
03:53PM 33.2290 -98.1720 290° West 416 479 26,300 960 Climbing FlightAware
03:54PM 33.2510 -98.2460 290° West 416 479 26,300  Level FlightAware
03:55PM 33.2740 -98.3190 291° West 416 479 26,300  Level FlightAware
03:55PM 33.2960 -98.3930 290° West 416 479 26,300  Level FlightAware
03:56PM 33.3240 -98.4850 290° West 416 479 26,300 3,600 Level FlightAware
03:57PM 33.3720 -98.6340 291° West 422 486 31,700 4,020 Climbing FlightAware
03:58PM 33.4210 -98.7440 298° West 421 484 32,700 600 Climbing FlightAware
03:58PM 33.4520 -98.8140 298° West 421 484 32,700  Level FlightAware
03:59PM 33.4830 -98.8840 298° West 421 484 32,700  Level FlightAware
04:00PM 33.5140 -98.9540 298° West 421 484 32,700  Level FlightAware
04:00PM 33.5530 -99.0420 298° West 421 484 32,700  Level FlightAware
04:01PM 33.5840 -99.1120 298° West 421 484 32,700  Level FlightAware
04:02PM 33.6150 -99.1820 298° West 421 484 32,700  Level FlightAware
04:02PM 33.6470 -99.2520 299° West 421 484 32,700  Level FlightAware
04:03PM 33.6780 -99.3230 298° West 421 484 32,700  Level FlightAware
04:04PM 33.7170 -99.4110 298° West 421 484 32,700  Level FlightAware
04:04PM 33.7320 -99.4460 297° West 421 484 32,700  Level FlightAware
04:05PM 33.7710 -99.5340 298° West 421 484 32,700  Level FlightAware
04:06PM 33.8020 -99.6040 298° West 421 484 32,700  Level FlightAware
04:06PM 33.8330 -99.6740 298° West 421 484 32,700 2,760 Level FlightAware
04:08PM 34.1000 -99.8560 331° Northwest 406 467 38,000 2,880 Climbing FlightAware
04:08PM 34.1350 -99.9160 305° West 406 467 38,000  Level FlightAware
04:09PM 34.1810 -99.9950 305° West 406 467 38,000  Level FlightAware
04:10PM 34.2180 -100.0580 305° West 406 467 38,000  Level FlightAware
04:10PM 34.2540 -100.1210 305° West 406 467 38,000  Level FlightAware
04:11PM 34.2910 -100.1850 305° West 406 467 38,000  Level FlightAware
04:12PM 34.3280 -100.2480 305° West 406 467 38,000  Level FlightAware
04:13PM 34.3730 -100.3270 305° West 406 467 38,000  Level FlightAware
04:13PM 34.4100 -100.3910 305° West 406 467 38,000  Level FlightAware
04:14PM 34.4470 -100.4540 305° West 406 467 38,000  Level FlightAware
04:15PM 34.4830 -100.5180 304° West 406 467 38,000  Level FlightAware
04:15PM 34.5200 -100.5810 305° West 406 467 38,000  Level FlightAware
04:16PM 34.5560 -100.6450 304° West 406 467 38,000  Level FlightAware
04:17PM 34.6020 -100.7240 305° West 406 467 38,000  Level FlightAware
04:17PM 34.6390 -100.7880 305° West 406 467 38,000  Level FlightAware
04:19PM 34.7919 -101.0397 305° West 402 463 38,000  Level Albuquerque Center
04:20PM 34.8675 -101.1731 305° West 399 459 38,000  Level Albuquerque Center
04:21PM 34.9303 -101.2842 305° West 399 459 38,000  Level Albuquerque Center
04:22PM 34.9986 -101.4031 305° West 402 463 38,000  Level Albuquerque Center
04:24PM 35.1272 -101.6289 305° West 403 464 38,000  Level Albuquerque Center
04:25PM 35.1947 -101.7489 305° West 401 461 38,000  Level Albuquerque Center
04:26PM 35.2589 -101.8619 305° West 401 461 38,000  Level Albuquerque Center
04:27PM 35.3233 -101.9767 305° West 404 465 38,000  Level Albuquerque Center
04:28PM 35.3783 -102.0822 303° West 405 466 38,000  Level Albuquerque Center
04:29PM 35.4556 -102.2189 305° West 407 468 38,000  Level Albuquerque Center
04:30PM 35.5186 -102.3328 304° West 405 466 38,000  Level Albuquerque Center
04:31PM 35.5811 -102.4453 304° West 402 463 38,000  Level Albuquerque Center
04:32PM 35.6439 -102.5592 304° West 402 463 38,000  Level Albuquerque Center
04:33PM 35.7056 -102.6731 304° West 402 463 38,000  Level Albuquerque Center
04:34PM 35.7678 -102.7864 304° West 401 461 38,000  Level Albuquerque Center
04:35PM 35.8292 -102.8972 304° West 395 455 38,000  Level Albuquerque Center
04:36PM 35.8983 -103.0250 304° West 397 457 38,000  Level Albuquerque Center
04:37PM 35.9603 -103.1394 304° West 398 458 38,000  Level Albuquerque Center
04:38PM 36.0214 -103.2539 303° West 398 458 38,000  Level Albuquerque Center
04:39PM 36.0911 -103.3850 303° West 392 451 38,000  Level Albuquerque Center
04:40PM 36.1522 -103.4967 304° West 391 450 38,000  Level Albuquerque Center
04:41PM 36.2122 -103.6106 303° West 392 451 38,000  Level Albuquerque Center
04:42PM 36.2731 -103.7236 304° West 393 452 38,000  Level Albuquerque Center
04:43PM 36.3322 -103.8367 303° West 391 450 38,000  Level Albuquerque Center
04:44PM 36.3917 -103.9492 303° West 389 448 38,000  Level Albuquerque Center
04:45PM 36.4508 -104.0628 303° West 389 448 38,000  Level Albuquerque Center
04:46PM 36.5208 -104.1961 303° West 392 451 38,000  Level Albuquerque Center
04:47PM 36.5806 -104.3111 303° West 392 451 38,000  Level Albuquerque Center
04:48PM 36.6411 -104.4242 304° West 392 451 38,000  Level Albuquerque Center
04:50PM 36.7039 -104.5444 303° West 390 449 38,000  Level Albuquerque Center
04:51PM 36.7614 -104.6578 302° West 398 458 38,000  Level Albuquerque Center
04:52PM 36.8278 -104.7858 303° West 395 455 38,000  Level Albuquerque Center
04:53PM 36.8850 -104.8967 303° West 394 453 38,000  Level Denver Center
04:54PM 36.9444 -105.0122 303° West 394 453 38,000  Level Denver Center
04:55PM 36.9900 -105.1036 302° West 393 452 38,000  Level Denver Center
05:00PM 37.3422 -105.8020 302° West 402 463 38,000  Level FlightAware ADS-B
05:00PM 37.3472 -105.8150 296° West 400 460 38,000  Level FlightAware ADS-B
05:01PM 37.3584 -105.8470 294° West 397 457 38,000  Level FlightAware ADS-B
05:01PM 37.3774 -105.9110 291° West 393 452 38,000  Level FlightAware ADS-B
05:02PM 37.3971 -105.9770 291° West 397 457 38,000  Level FlightAware ADS-B
05:02PM 37.4215 -106.0600 290° West 397 457 38,000  Level FlightAware ADS-B
05:08PM 37.6220 -106.7510 290° West 401 461 38,000  Level FlightAware
05:11PM 37.7380 -107.1580 290° West 405 466 38,000  Level FlightAware
05:11PM 37.7640 -107.2480 290° West 407 468 38,000  Level FlightAware
05:12PM 37.7870 -107.3310 289° West 407 468 38,000  Level FlightAware
05:13PM 37.8120 -107.4180 290° West 402 463 38,000  Level FlightAware
05:14PM 37.8370 -107.5110 289° West 402 463 38,000  Level FlightAware
05:14PM 37.8720 -107.6330 290° West 402 463 38,000  Level FlightAware
05:17PM 37.9830 -108.0360 289° West 407 468 38,000  Level FlightAware
05:18PM 38.0030 -108.1120 288° West 407 468 38,000  Level FlightAware
05:19PM 38.0240 -108.1890 289° West 407 468 38,000  Level FlightAware
05:19PM 38.0400 -108.2470 289° West 407 468 38,000  Level FlightAware
05:20PM 38.0610 -108.3240 289° West 407 468 38,000  Level FlightAware
05:20PM 38.0810 -108.4010 288° West 407 468 38,000  Level FlightAware
05:21PM 38.1080 -108.4970 290° West 407 468 38,000  Level FlightAware
05:22PM 38.1280 -108.5740 288° West 407 468 38,000  Level FlightAware
05:23PM 38.1490 -108.6510 289° West 407 468 38,000  Level FlightAware
05:24PM 38.2090 -108.8790 289° West 408 470 38,000  Level FlightAware
05:24PM 38.2370 -108.9830 289° West 408 470 38,000  Level FlightAware
05:25PM 38.2590 -109.0690 288° West 409 471 38,000  Level FlightAware
05:26PM 38.2790 -109.1470 288° West 409 471 38,000  Level FlightAware
05:26PM 38.2990 -109.2250 288° West 409 471 38,000  Level FlightAware
05:27PM 38.3240 -109.3220 288° West 409 471 38,000  Level FlightAware
05:29PM 38.4210 -109.6950 288° West 411 473 38,000  Level FlightAware
05:30PM 38.4250 -109.7570 275° West 411 473 38,000  Level FlightAware
05:31PM 38.4420 -109.8510 283° West 411 473 38,000  Level FlightAware
05:32PM 38.4600 -109.9520 283° West 411 473 38,000  Level FlightAware
05:32PM 38.4750 -110.0320 283° West 411 473 38,000  Level FlightAware
05:33PM 38.4890 -110.1130 282° West 411 473 38,000  Level FlightAware
05:34PM 38.5040 -110.1930 283° West 411 473 38,000  Level FlightAware
05:34PM 38.5180 -110.2740 282° West 411 473 38,000  Level FlightAware
05:35PM 38.5330 -110.3540 284° West 411 473 38,000  Level FlightAware
05:36PM 38.5470 -110.4350 282° West 411 473 38,000  Level FlightAware
05:36PM 38.5620 -110.5150 284° West 411 473 38,000  Level FlightAware
05:37PM 38.5760 -110.5960 282° West 411 473 38,000  Level FlightAware
05:38PM 38.5910 -110.6770 283° West 411 473 38,000  Level FlightAware
05:38PM 38.6050 -110.7570 283° West 411 473 38,000  Level FlightAware
05:39PM 38.6240 -110.8580 284° West 411 473 38,000  Level FlightAware
05:40PM 38.6380 -110.9390 283° West 411 473 38,000  Level FlightAware
05:40PM 38.3922 -111.2547 283° West 408 470 38,000  Level Salt Lake Center
05:41PM 38.3869 -111.3983 267° West 408 470 38,000  Level Salt Lake Center
05:42PM 38.3822 -111.5425 268° West 409 471 38,000  Level Salt Lake Center
05:43PM 38.3767 -111.7144 268° West 406 467 38,000  Level Salt Lake Center
05:44PM 38.3719 -111.8558 268° West 403 464 38,000  Level Salt Lake Center
05:45PM 38.3656 -111.9961 267° West 400 460 38,000  Level Salt Lake Center
05:46PM 38.3611 -112.1386 268° West 403 464 38,000  Level Salt Lake Center
05:47PM 38.3544 -112.2797 267° West 403 464 38,000  Level Salt Lake Center
05:49PM 38.3492 -112.4206 267° West 401 461 38,000  Level Salt Lake Center
05:50PM 38.3422 -112.5625 266° West 403 464 38,000  Level Salt Lake Center
05:51PM 38.3353 -112.7311 267° West 402 463 38,000  Level Salt Lake Center
05:52PM 38.3292 -112.8733 267° West 404 465 38,000  Level Salt Lake Center
05:53PM 38.3217 -113.0167 266° West 408 470 38,000  Level Salt Lake Center
05:54PM 38.3147 -113.1608 267° West 411 473 38,000  Level Salt Lake Center
05:55PM 38.3081 -113.3061 267° West 413 475 38,000  Level Salt Lake Center
05:56PM 38.3006 -113.4497 266° West 411 473 38,000  Level Salt Lake Center
05:57PM 38.2919 -113.6239 266° West 414 476 38,000  Level Salt Lake Center
05:58PM 38.2842 -113.7689 266° West 414 476 38,000  Level Salt Lake Center
05:59PM 38.2764 -113.9111 266° West 409 471 38,000  Level Salt Lake Center
06:00PM 38.2692 -114.0481 266° West 397 457 38,000  Level Salt Lake Center
06:01PM 38.2614 -114.1875 266° West 395 455 38,000  Level Salt Lake Center
06:02PM 38.2533 -114.3228 266° West 390 449 38,000  Level Salt Lake Center
06:03PM 38.2442 -114.4569 265° West 384 442 38,000  Level Salt Lake Center
06:04PM 38.2347 -114.6178 266° West 383 441 38,000  Level Salt Lake Center
06:05PM 38.2272 -114.7528 266° West 385 443 38,000  Level Salt Lake Center
06:06PM 38.2189 -114.8875 266° West 385 443 38,000  Level Salt Lake Center
06:07PM 38.2106 -115.0214 266° West 384 442 38,000  Level Salt Lake Center
06:08PM 38.2028 -115.1553 266° West 382 440 38,000  Level Salt Lake Center
06:09PM 38.1928 -115.2925 265° West 388 447 38,000  Level Salt Lake Center
06:10PM 38.1847 -115.4272 266° West 386 444 38,000  Level Salt Lake Center
06:11PM 38.1753 -115.5614 265° West 383 441 38,000  Level Salt Lake Center
06:12PM 38.1642 -115.7247 265° West 386 444 38,000  Level Salt Lake Center
06:13PM 38.1550 -115.8606 265° West 388 447 38,000  Level Salt Lake Center
06:14PM 38.1447 -115.9922 264° West 377 434 38,000  Level Salt Lake Center
06:15PM 38.1331 -116.1242 264° West 376 433 38,000  Level Salt Lake Center
06:16PM 38.1236 -116.2544 265° West 373 429 38,000  Level Salt Lake Center
06:17PM 38.1147 -116.3850 265° West 372 428 38,000  Level Salt Lake Center
06:18PM 38.1047 -116.5172 265° West 375 432 38,000  Level Salt Lake Center
06:19PM 38.0947 -116.6478 264° West 373 429 38,000  Level Salt Lake Center
06:20PM 38.0847 -116.7797 265° West 373 429 38,000  Level Salt Lake Center
06:21PM 38.0731 -116.9400 265° West 378 435 38,000  Level Salt Lake Center
06:22PM 38.0639 -117.0450 264° West 375 432 38,000  Level Oakland Center
06:23PM 38.0508 -117.2097 264° West 380 437 38,000  Level Salt Lake Center
06:24PM 38.0403 -117.3225 263° West 389 448 38,000  Level Oakland Center
06:25PM 38.0294 -117.4592 264° West 387 445 38,000  Level Oakland Center
06:26PM 38.0181 -117.5931 264° West 382 440 38,000  Level Oakland Center
06:27PM 38.0067 -117.7261 264° West 379 436 38,000  Level Oakland Center
06:28PM 37.9939 -117.8597 263° West 381 438 38,000  Level Oakland Center
06:29PM 37.9792 -117.9906 262° West 376 433 38,000  Level Oakland Center
06:35PM 37.8900 -118.8090 262° West 384 442 38,000  Level FlightAware
06:36PM 37.8810 -118.8850 261° West 384 442 38,000  Level FlightAware
06:37PM 37.8680 -119.0050 262° West 381 438 38,000  Level FlightAware
06:37PM 37.8590 -119.0900 262° West 380 437 38,000  Level FlightAware
06:38PM 37.8470 -119.1890 261° West 378 435 38,000  Level FlightAware
06:39PM 37.8370 -119.2780 262° West 378 435 38,000  Level FlightAware
06:39PM 37.8280 -119.3560 262° West 380 437 38,000  Level FlightAware
06:40PM 37.8140 -119.4670 261° West 382 440 38,000  Level FlightAware
06:41PM 37.8030 -119.5640 262° West 384 442 38,000  Level FlightAware
06:42PM 37.7930 -119.6440 261° West 385 443 38,000  Level FlightAware
06:42PM 37.7810 -119.7420 261° West 387 445 38,000  Level FlightAware
06:43PM 37.7690 -119.8410 261° West 388 447 38,000 -180 Level FlightAware
06:44PM 37.7580 -119.9300 261° West 388 447 37,800 -720 Descending FlightAware
06:45PM 37.7460 -120.0300 261° West 390 449 37,000 -600 Descending FlightAware
06:45PM 37.7350 -120.1190 261° West 389 448 37,000  Level FlightAware
06:46PM 37.7240 -120.2100 261° West 389 448 37,000 -900 Level FlightAware
06:47PM 37.7130 -120.2980 261° West 392 451 35,800 -2,880 Descending FlightAware
06:47PM 37.6990 -120.4070 261° West 411 473 33,000 -3,720 Descending FlightAware
06:48PM 37.6850 -120.5150 261° West 421 484 30,300 -3,120 Descending FlightAware
06:49PM 37.6730 -120.6120 261° West 407 468 28,600 -2,640 Descending FlightAware
06:49PM 37.6610 -120.7020 260° West 393 452 26,800 -2,940 Descending FlightAware
06:50PM 37.6490 -120.7910 260° West 381 438 24,700 -3,180 Descending FlightAware
06:51PM 37.6370 -120.8890 261° West 379 436 22,300 -2,880 Descending FlightAware
06:51PM 37.6250 -120.9770 260° West 373 429 20,700 -2,280 Descending FlightAware
06:52PM 37.6150 -121.0710 262° West 365 420 19,100 -2,220 Descending FlightAware
06:53PM 37.6050 -121.1530 261° West 360 414 17,600 -2,340 Descending FlightAware
06:54PM 37.5940 -121.2490 262° West 356 410 15,800 -2,280 Descending FlightAware
06:54PM 37.5850 -121.3310 262° West 351 404 14,400 -2,160 Descending FlightAware
06:55PM 37.5750 -121.4180 262° West 343 395 12,800 -2,100 Descending FlightAware
06:56PM 37.5660 -121.4960 262° West 336 387 11,500 -1,320 Descending FlightAware
06:56PM 37.5570 -121.5700 261° West 301 346 11,100 -600 Descending FlightAware
06:57PM 37.5450 -121.6450 259° West 274 315 10,700 -780 Descending FlightAware
06:58PM 37.5290 -121.7040 251° West 269 310 10,000 -1,140 Descending FlightAware
06:58PM 37.5240 -121.7250 253° West 266 306 9,700 -1,080 Descending FlightAware
06:58PM 37.5140 -121.7630 252° West 265 305 9,300 -1,140 Descending FlightAware
06:59PM 37.5020 -121.8070 251° West 273 314 8,700 -1,140 Descending FlightAware
06:59PM 37.4890 -121.8520 250° West 271 312 8,200 -960 Descending FlightAware
07:00PM 37.4840 -121.8820 258° West 265 305 7,900 -1,200 Descending FlightAware
07:00PM 37.4880 -121.9100 280° West 262 302 7,400 -1,560 Descending FlightAware
07:01PM 37.4970 -121.9570 284° West 264 304 6,600 -1,500 Descending FlightAware
07:01PM 37.5010 -121.9770 284° West 264 304 6,300 -1,500 Descending FlightAware
07:01PM 37.5110 -122.0160 288° West 254 292 5,600 -1,560 Descending FlightAware
07:02PM 37.5230 -122.0560 291° West 236 272 4,900 -1,380 Descending FlightAware
07:02PM 37.5280 -122.0730 290° West 231 266 4,600 -1,200 Descending FlightAware
07:02PM 37.5380 -122.1030 293° West 224 258 4,100 -1,320 Descending FlightAware
07:03PM 37.5490 -122.1400 291° West 216 249 3,400 -1,320 Descending FlightAware
07:03PM 37.5580 -122.1700 291° West 195 224 2,900 -1,200 Descending FlightAware
07:04PM 37.5620 -122.1840 290° West 184 212 2,600 -1,080 Descending FlightAware
07:04PM 37.5700 -122.2080 293° West 170 196 2,200 -1,080 Descending FlightAware
07:04PM 37.5750 -122.2260 289° West 163 188 1,800 -960 Descending FlightAware
07:05PM 37.5800 -122.2480 286° West 155 178 1,500 -600 Descending FlightAware
07:05PM 37.5840 -122.2730 281° West 144 166 1,300 -600 Descending FlightAware
07:06PM 37.5870 -122.2950 280° West 142 163 1,000 -780 Descending FlightAware
07:06PM 37.5940 -122.3160 293° West 137 158 600 -780 Descending FlightAware
07:07PM 37.6010 -122.3330 297° West 132 152 300 -720 Descending FlightAware
07:07PM 37.6090 -122.3530 297° West 127 146 -600 Descending FlightAware
07:07PM 37.6130 -122.3620 299° West 128 147  Level FlightAware